createdAt,value
2022-11-01T00:00:10.642Z,77.74
2022-11-01T00:02:38.912Z,77.61
2022-11-01T00:05:07.614Z,77.86
2022-11-01T00:07:35.649Z,77.52
2022-11-01T00:10:03.750Z,77.36
2022-11-01T00:12:34.632Z,77.42
2022-11-01T00:15:02.597Z,77.78
2022-11-01T00:17:32.057Z,77.56
2022-11-01T00:20:00.873Z,77.74
2022-11-01T00:22:28.946Z,77.95
2022-11-01T00:24:56.881Z,77.50
2022-11-01T00:27:24.979Z,77.56
2022-11-01T00:29:52.957Z,78.14
2022-11-01T00:32:20.993Z,77.22
2022-11-01T00:34:50.131Z,77.78
2022-11-01T00:37:18.145Z,77.87
2022-11-01T00:39:46.104Z,77.80
2022-11-01T00:42:14.337Z,77.72
2022-11-01T00:44:42.356Z,77.77
2022-11-01T00:47:10.290Z,77.77
2022-11-01T00:49:39.212Z,77.63
2022-11-01T00:52:07.154Z,77.72
2022-11-01T00:54:35.202Z,78.01
2022-11-01T00:57:05.375Z,77.99
2022-11-01T00:59:33.433Z,77.64
2022-11-01T01:02:01.679Z,77.46
2022-11-01T01:04:29.973Z,78.20
2022-11-01T01:06:58.019Z,77.74
2022-11-01T01:09:26.058Z,77.89
2022-11-01T01:11:55.091Z,78.09
2022-11-01T01:14:28.508Z,78.11
2022-11-01T01:16:59.420Z,77.69
2022-11-01T01:19:29.029Z,77.95
2022-11-01T01:21:57.069Z,77.79
2022-11-01T01:24:25.052Z,77.83
2022-11-01T01:26:53.191Z,77.89
2022-11-01T01:29:21.260Z,77.82
2022-11-01T01:31:51.361Z,77.77
2022-11-01T01:34:21.640Z,77.99
2022-11-01T01:36:49.588Z,78.02
2022-11-01T01:39:17.591Z,78.18
2022-11-01T01:41:57.805Z,77.83
2022-11-01T01:45:10.255Z,78.24
2022-11-01T01:47:42.059Z,78.11
2022-11-01T01:50:15.863Z,78.00
2022-11-01T01:52:46.908Z,78.05
2022-11-01T01:55:20.680Z,77.90
2022-11-01T01:57:50.058Z,77.91
2022-11-01T02:00:18.597Z,78.19
2022-11-01T02:02:47.929Z,78.36
2022-11-01T02:05:31.300Z,78.29
2022-11-01T02:08:03.634Z,78.00
2022-11-01T02:10:32.942Z,78.16
2022-11-01T02:13:01.038Z,78.41
2022-11-01T02:15:41.549Z,78.23
2022-11-01T02:18:45.678Z,78.34
2022-11-01T02:21:29.979Z,78.07
2022-11-01T02:23:57.891Z,78.39
2022-11-01T02:26:51.152Z,78.18
2022-11-01T02:29:38.132Z,78.28
2022-11-01T02:32:23.061Z,78.23
2022-11-01T02:34:58.349Z,78.33
2022-11-01T02:37:55.200Z,78.12
2022-11-01T02:40:47.923Z,77.85
2022-11-01T02:43:30.613Z,78.19
2022-11-01T02:46:22.389Z,78.42
2022-11-01T02:48:50.771Z,77.97
2022-11-01T02:51:23.348Z,77.95
2022-11-01T02:53:51.356Z,77.99
2022-11-01T02:56:20.565Z,78.31
2022-11-01T02:58:49.845Z,78.10
2022-11-01T03:01:25.753Z,77.67
2022-11-01T03:03:56.231Z,77.96
2022-11-01T03:06:48.687Z,78.16
2022-11-01T03:09:17.239Z,77.75
2022-11-01T03:12:09.497Z,78.04
2022-11-01T03:14:50.511Z,78.42
2022-11-01T03:17:24.106Z,77.92
2022-11-01T03:20:26.696Z,78.13
2022-11-01T03:23:01.949Z,77.64
2022-11-01T03:25:41.406Z,77.77
2022-11-01T03:28:18.555Z,77.89
2022-11-01T03:30:54.164Z,77.71
2022-11-01T03:33:25.018Z,77.60
2022-11-01T03:35:57.046Z,77.80
2022-11-01T03:38:30.091Z,77.49
2022-11-01T03:41:03.646Z,77.27
2022-11-01T03:43:33.818Z,77.07
2022-11-01T03:46:02.015Z,76.91
2022-11-01T03:48:30.125Z,76.68
2022-11-01T03:50:58.135Z,76.96
2022-11-01T03:53:28.790Z,76.49
2022-11-01T03:55:56.688Z,76.54
2022-11-01T03:58:24.814Z,76.32
2022-11-01T04:00:53.805Z,76.34
2022-11-01T04:03:21.812Z,76.48
2022-11-01T04:05:49.719Z,76.19
2022-11-01T04:08:18.301Z,75.84
2022-11-01T04:10:46.223Z,75.89
2022-11-01T04:13:14.360Z,75.72
2022-11-01T04:16:00.703Z,75.69
2022-11-01T04:18:47.056Z,75.59
2022-11-01T04:21:18.010Z,75.86
2022-11-01T04:23:47.159Z,75.98
2022-11-01T04:26:20.771Z,75.28
2022-11-01T04:28:58.588Z,75.34
2022-11-01T04:31:36.159Z,75.09
2022-11-01T04:34:05.755Z,75.09
2022-11-01T04:36:33.539Z,75.09
2022-11-01T04:39:02.614Z,75.01
2022-11-01T04:41:30.897Z,75.13
2022-11-01T04:44:00.512Z,74.85
2022-11-01T04:46:32.679Z,74.55
2022-11-01T04:49:00.695Z,75.12
2022-11-01T04:51:28.798Z,74.82
2022-11-01T04:53:57.185Z,75.50
2022-11-01T04:56:25.194Z,74.98
2022-11-01T04:58:53.327Z,74.69
2022-11-01T05:01:21.561Z,74.57
2022-11-01T05:03:51.345Z,74.69
2022-11-01T05:06:18.911Z,74.34
2022-11-01T05:08:47.772Z,74.47
2022-11-01T05:11:15.913Z,74.50
2022-11-01T05:13:43.817Z,74.25
2022-11-01T05:16:19.454Z,74.31
2022-11-01T05:18:50.021Z,73.89
2022-11-01T05:21:18.099Z,74.22
2022-11-01T05:23:50.394Z,74.58
2022-11-01T05:26:18.459Z,74.11
2022-11-01T05:28:46.536Z,73.49
2022-11-01T05:31:15.481Z,74.00
2022-11-01T05:33:43.530Z,74.00
2022-11-01T05:36:11.609Z,73.42
2022-11-01T05:38:39.653Z,73.94
2022-11-01T05:41:07.644Z,73.54
2022-11-01T05:43:35.686Z,73.40
2022-11-01T05:46:08.163Z,73.51
2022-11-01T05:48:36.251Z,73.53
2022-11-01T05:51:04.228Z,73.68
2022-11-01T05:53:32.397Z,73.47
2022-11-01T05:56:00.549Z,73.53
2022-11-01T05:58:30.826Z,73.03
2022-11-01T06:01:06.225Z,72.80
2022-11-01T06:03:35.476Z,73.13
2022-11-01T06:06:04.205Z,72.98
2022-11-01T06:08:32.886Z,73.06
2022-11-01T06:11:07.124Z,72.70
2022-11-01T06:13:35.267Z,73.37
2022-11-01T06:16:05.690Z,72.76
2022-11-01T06:18:35.511Z,73.36
2022-11-01T06:21:03.483Z,73.02
2022-11-01T06:23:31.513Z,72.30
2022-11-01T06:26:05.711Z,72.93
2022-11-01T06:28:34.097Z,72.71
2022-11-01T06:31:03.310Z,72.67
2022-11-01T06:33:32.634Z,72.24
2022-11-01T06:36:02.291Z,72.20
2022-11-01T06:38:30.663Z,72.47
2022-11-01T06:40:58.784Z,72.18
2022-11-01T06:43:26.872Z,72.38
2022-11-01T06:45:55.141Z,72.21
2022-11-01T06:48:24.132Z,72.41
2022-11-01T06:50:54.358Z,72.18
2022-11-01T06:53:25.738Z,72.03
2022-11-01T06:55:53.907Z,72.33
2022-11-01T06:58:21.883Z,71.86
2022-11-01T07:00:50.035Z,72.44
2022-11-01T07:03:18.596Z,72.48
2022-11-01T07:05:49.080Z,72.05
2022-11-01T07:08:17.029Z,72.12
2022-11-01T07:10:45.477Z,71.91
2022-11-01T07:13:14.774Z,71.74
2022-11-01T07:15:43.023Z,72.05
2022-11-01T07:18:12.886Z,72.19
2022-11-01T07:20:43.526Z,72.31
2022-11-01T07:23:17.100Z,72.31
2022-11-01T07:25:45.324Z,71.59
2022-11-01T07:28:13.444Z,71.95
2022-11-01T07:30:41.526Z,71.55
2022-11-01T07:33:10.044Z,71.31
2022-11-01T07:35:38.052Z,71.07
2022-11-01T07:38:09.744Z,70.91
2022-11-01T07:40:42.146Z,71.01
2022-11-01T07:43:10.120Z,71.01
2022-11-01T07:45:38.081Z,71.11
2022-11-01T07:48:11.067Z,71.25
2022-11-01T07:50:40.434Z,71.05
2022-11-01T07:53:11.166Z,71.12
2022-11-01T07:55:39.373Z,70.65
2022-11-01T07:58:08.921Z,70.33
2022-11-01T08:00:37.709Z,70.33
2022-11-01T08:03:12.143Z,69.62
2022-11-01T08:05:40.973Z,69.79
2022-11-01T08:08:10.505Z,69.86
2022-11-01T08:10:39.156Z,69.68
2022-11-01T08:13:22.157Z,69.53
2022-11-01T08:15:52.389Z,69.38
2022-11-01T08:18:25.101Z,69.58
2022-11-01T08:20:53.104Z,69.00
2022-11-01T08:23:22.662Z,68.83
2022-11-01T08:25:50.677Z,69.18
2022-11-01T08:28:21.187Z,68.48
2022-11-01T08:30:52.291Z,68.24
2022-11-01T08:33:20.315Z,68.79
2022-11-01T08:35:50.637Z,68.65
2022-11-01T08:38:22.608Z,68.79
2022-11-01T08:40:50.676Z,68.50
2022-11-01T08:43:18.971Z,68.54
2022-11-01T08:45:48.297Z,68.03
2022-11-01T08:48:16.247Z,68.53
2022-11-01T08:50:44.325Z,67.84
2022-11-01T08:53:16.825Z,67.92
2022-11-01T08:55:44.986Z,67.95
2022-11-01T08:58:13.068Z,68.08
2022-11-01T09:00:42.169Z,67.67
2022-11-01T09:03:10.230Z,67.89
2022-11-01T09:05:38.305Z,67.87
2022-11-01T09:08:06.948Z,68.11
2022-11-01T09:10:35.698Z,67.95
2022-11-01T09:13:04.163Z,67.78
2022-11-01T09:15:34.596Z,67.75
2022-11-01T09:18:06.964Z,68.16
2022-11-01T09:20:35.080Z,67.88
2022-11-01T09:23:05.303Z,67.63
2022-11-01T09:25:33.490Z,67.85
2022-11-01T09:28:01.525Z,67.98
2022-11-01T09:30:32.666Z,68.15
2022-11-01T09:33:05.539Z,68.08
2022-11-01T09:35:34.246Z,68.02
2022-11-01T09:38:05.628Z,68.56
2022-11-01T09:40:44.736Z,68.07
2022-11-01T09:43:23.508Z,68.91
2022-11-01T09:45:53.286Z,68.71
2022-11-01T09:48:21.963Z,68.53
2022-11-01T09:50:53.358Z,68.71
2022-11-01T09:53:30.243Z,69.12
2022-11-01T09:56:06.831Z,68.93
2022-11-01T09:58:59.826Z,69.45
2022-11-01T10:01:52.980Z,69.53
2022-11-01T10:04:29.764Z,69.85
2022-11-01T10:07:09.226Z,69.41
2022-11-01T10:09:55.255Z,69.95
2022-11-01T10:13:00.110Z,69.88
2022-11-01T10:16:13.382Z,70.21
2022-11-01T10:19:00.932Z,70.00
2022-11-01T10:21:45.265Z,69.82
2022-11-01T10:24:20.383Z,70.16
2022-11-01T10:26:54.947Z,70.08
2022-11-01T10:29:41.812Z,70.57
2022-11-01T10:32:44.136Z,70.36
2022-11-01T10:35:15.635Z,71.05
2022-11-01T10:37:57.366Z,70.50
2022-11-01T10:40:45.106Z,70.95
2022-11-01T10:43:21.249Z,70.80
2022-11-01T10:45:54.665Z,70.81
2022-11-01T10:48:45.688Z,71.42
2022-11-01T10:51:18.217Z,71.20
2022-11-01T10:53:51.096Z,71.41
2022-11-01T10:56:42.599Z,71.26
2022-11-01T10:59:21.497Z,71.25
2022-11-01T11:01:53.727Z,71.59
2022-11-01T11:04:25.582Z,72.14
2022-11-01T11:06:53.673Z,72.10
2022-11-01T11:09:38.386Z,72.02
2022-11-01T11:12:15.601Z,71.83
2022-11-01T11:14:48.289Z,72.03
2022-11-01T11:17:23.536Z,72.36
2022-11-01T11:19:54.437Z,72.63
2022-11-01T11:22:23.928Z,72.15
2022-11-01T11:24:53.408Z,72.50
2022-11-01T11:27:34.533Z,72.66
2022-11-01T11:30:09.172Z,72.74
2022-11-01T11:32:42.775Z,72.86
2022-11-01T11:35:20.075Z,73.17
2022-11-01T11:38:05.639Z,73.21
2022-11-01T11:40:41.559Z,73.18
2022-11-01T11:43:24.336Z,73.26
2022-11-01T11:46:19.816Z,73.29
2022-11-01T11:49:03.016Z,73.40
2022-11-01T11:51:38.666Z,73.39
2022-11-01T11:54:25.756Z,73.15
2022-11-01T11:57:09.240Z,73.52
2022-11-01T11:59:38.636Z,73.49
2022-11-01T12:06:24.897Z,74.14
2022-11-01T12:08:58.490Z,74.09
2022-11-01T12:11:47.053Z,74.32
2022-11-01T12:14:24.106Z,73.88
2022-11-01T12:16:53.639Z,74.75
2022-11-01T12:19:31.766Z,74.52
2022-11-01T12:22:06.322Z,74.25
2022-11-01T12:24:53.156Z,74.34
2022-11-01T12:27:27.458Z,74.72
2022-11-01T12:30:16.955Z,74.67
2022-11-01T12:33:04.829Z,74.42
2022-11-01T12:35:42.085Z,74.98
2022-11-01T12:38:13.298Z,75.05
2022-11-01T12:40:46.356Z,74.78
2022-11-01T12:43:19.782Z,75.04
2022-11-01T12:46:17.215Z,75.18
2022-11-01T12:48:52.583Z,75.27
2022-11-01T12:51:32.259Z,75.42
2022-11-01T12:54:17.845Z,75.18
2022-11-01T12:56:46.706Z,75.17
2022-11-01T12:59:21.834Z,75.42
2022-11-01T13:01:57.258Z,75.45
2022-11-01T13:04:35.467Z,75.44
2022-11-01T13:07:33.941Z,75.28
2022-11-01T13:10:10.646Z,75.66
2022-11-01T13:13:12.732Z,75.07
2022-11-01T13:15:55.392Z,75.86
2022-11-01T13:18:50.752Z,75.68
2022-11-01T13:21:26.752Z,75.43
2022-11-01T13:24:11.508Z,75.81
2022-11-01T13:26:51.621Z,75.45
2022-11-01T13:29:22.088Z,75.69
2022-11-01T13:32:19.769Z,76.08
2022-11-01T13:34:55.871Z,75.92
2022-11-01T13:37:46.124Z,75.63
2022-11-01T13:41:04.672Z,76.49
2022-11-01T13:43:45.861Z,76.21
2022-11-01T13:46:50.006Z,75.68
2022-11-01T13:50:03.183Z,76.25
2022-11-01T13:52:35.727Z,76.01
2022-11-01T13:55:29.265Z,76.00
2022-11-01T13:57:58.401Z,76.62
2022-11-01T14:00:44.887Z,76.41
2022-11-01T14:03:28.123Z,76.47
2022-11-01T14:06:11.917Z,76.00
2022-11-01T14:08:47.911Z,76.56
2022-11-01T14:11:46.513Z,76.16
2022-11-01T14:14:34.483Z,76.76
2022-11-01T14:17:27.614Z,76.38
2022-11-01T14:20:02.512Z,76.45
2022-11-01T14:22:33.556Z,76.68
2022-11-01T14:25:25.440Z,76.24
2022-11-01T14:28:19.355Z,76.28
2022-11-01T14:30:52.652Z,76.21
2022-11-01T14:33:23.179Z,76.58
2022-11-01T14:35:58.675Z,76.73
2022-11-01T14:38:41.795Z,76.48
2022-11-01T14:41:14.736Z,76.87
2022-11-01T14:43:54.559Z,76.39
2022-11-01T14:46:27.444Z,76.79
2022-11-01T14:49:32.151Z,76.68
2022-11-01T14:52:36.355Z,77.07
2022-11-01T14:55:17.803Z,76.47
2022-11-01T14:57:46.561Z,76.35
2022-11-01T15:00:32.539Z,77.11
2022-11-01T15:03:02.929Z,77.08
2022-11-01T15:05:31.773Z,76.67
2022-11-01T15:08:01.136Z,76.99
2022-11-01T15:10:41.238Z,77.05
2022-11-01T15:13:16.025Z,76.40
2022-11-01T15:15:44.595Z,77.22
2022-11-01T15:18:20.807Z,77.26
2022-11-01T15:20:53.434Z,77.06
2022-11-01T15:23:27.894Z,77.35
2022-11-01T15:25:58.330Z,77.19
2022-11-01T15:28:34.413Z,77.02
2022-11-01T15:31:07.115Z,77.41
2022-11-01T15:33:35.495Z,76.69
2022-11-01T15:36:24.986Z,76.98
2022-11-01T15:38:56.944Z,76.97
2022-11-01T15:41:36.287Z,77.35
2022-11-01T15:44:07.954Z,77.17
2022-11-01T15:46:42.999Z,77.11
2022-11-01T15:49:18.629Z,77.12
2022-11-01T15:51:57.875Z,77.23
2022-11-01T15:54:35.481Z,77.37
2022-11-01T15:57:14.676Z,77.49
2022-11-01T15:59:52.905Z,77.35
2022-11-01T16:02:32.313Z,77.62
2022-11-01T16:05:01.511Z,77.26
2022-11-01T16:07:34.323Z,76.96
2022-11-01T16:10:06.659Z,77.11
2022-11-01T16:12:39.420Z,77.74
2022-11-01T16:15:23.959Z,77.88
2022-11-01T16:17:57.338Z,77.18
2022-11-01T16:20:39.869Z,77.83
2022-11-01T16:23:13.543Z,77.79
2022-11-01T16:25:42.130Z,77.64
2022-11-01T16:28:10.051Z,77.64
2022-11-01T16:30:49.600Z,77.61
2022-11-01T16:33:28.504Z,77.92
2022-11-01T16:36:43.981Z,77.71
2022-11-01T16:39:28.707Z,78.02
2022-11-01T16:41:56.950Z,77.83
2022-11-01T16:44:25.150Z,77.93
2022-11-01T16:46:55.805Z,78.20
2022-11-01T16:49:26.689Z,77.91
2022-11-01T16:51:57.216Z,78.27
2022-11-01T16:54:27.106Z,78.04
2022-11-01T16:56:58.899Z,78.50
2022-11-01T16:59:27.083Z,78.08
2022-11-01T17:01:59.137Z,78.31
2022-11-01T17:04:28.525Z,78.13
2022-11-01T17:06:58.966Z,77.95
2022-11-01T17:09:31.627Z,78.15
2022-11-01T17:11:59.866Z,78.30
2022-11-01T17:14:28.067Z,78.40
2022-11-01T17:16:57.044Z,78.41
2022-11-01T17:19:34.457Z,78.01
2022-11-01T17:22:21.937Z,78.34
2022-11-01T17:24:50.221Z,78.56
2022-11-01T17:27:19.640Z,78.15
2022-11-01T17:29:47.833Z,78.37
2022-11-01T17:32:15.803Z,78.82
2022-11-01T17:34:43.840Z,78.59
2022-11-01T17:37:18.444Z,78.46
2022-11-01T17:39:46.403Z,78.38
2022-11-01T17:42:14.406Z,78.96
2022-11-01T17:44:43.718Z,78.54
2022-11-01T17:47:15.345Z,78.99
2022-11-01T17:49:43.288Z,78.99
2022-11-01T17:52:13.452Z,79.63
2022-11-01T17:54:41.555Z,78.54
2022-11-01T17:57:09.558Z,79.28
2022-11-01T17:59:40.875Z,78.87
2022-11-01T18:02:12.923Z,79.06
2022-11-01T18:04:41.216Z,79.35
2022-11-01T18:07:15.564Z,78.71
2022-11-01T18:09:43.583Z,79.07
2022-11-01T18:12:31.113Z,79.22
2022-11-01T18:15:09.243Z,79.31
2022-11-01T18:18:35.438Z,79.23
2022-11-01T18:21:46.814Z,79.13
2022-11-01T18:24:22.411Z,78.86
2022-11-01T18:26:52.137Z,78.98
2022-11-01T18:29:25.827Z,79.36
2022-11-01T18:32:19.471Z,79.36
2022-11-01T18:35:20.446Z,79.33
2022-11-01T18:38:03.648Z,79.39
2022-11-01T18:41:00.240Z,79.24
2022-11-01T18:43:33.118Z,79.54
2022-11-01T18:46:24.039Z,79.12
2022-11-01T18:49:04.190Z,79.54
2022-11-01T18:51:35.783Z,79.18
2022-11-01T18:54:09.464Z,79.46
2022-11-01T18:56:50.534Z,79.47
2022-11-01T18:59:28.197Z,79.71
2022-11-01T19:02:01.256Z,79.38
2022-11-01T19:04:36.426Z,79.37
2022-11-01T19:07:16.686Z,79.79
2022-11-01T19:09:54.881Z,79.51
2022-11-01T19:12:30.504Z,79.41
2022-11-01T19:15:05.627Z,79.64
2022-11-01T19:17:39.333Z,79.83
2022-11-01T19:20:30.664Z,79.90
2022-11-01T19:23:04.790Z,79.66
2022-11-01T19:25:35.961Z,80.00
2022-11-01T19:28:29.387Z,79.81
2022-11-01T19:31:03.949Z,79.83
2022-11-01T19:33:42.346Z,79.72
2022-11-01T19:36:20.438Z,79.70
2022-11-01T19:38:49.990Z,80.18
2022-11-01T19:41:30.035Z,79.86
2022-11-01T19:44:02.823Z,80.21
2022-11-01T19:46:31.313Z,79.95
2022-11-01T19:48:59.516Z,80.12
2022-11-01T19:51:27.444Z,80.12
2022-11-01T19:53:55.369Z,80.22
2022-11-01T19:56:28.730Z,80.13
2022-11-01T19:58:59.231Z,80.20
2022-11-01T20:01:41.661Z,80.40
2022-11-01T20:04:29.602Z,80.35
2022-11-01T20:07:17.784Z,79.92
2022-11-01T20:09:45.868Z,80.10
2022-11-01T20:12:19.982Z,80.36
2022-11-01T20:14:51.132Z,80.43
2022-11-01T20:17:19.434Z,80.14
2022-11-01T20:19:47.465Z,80.63
2022-11-01T20:22:16.750Z,80.26
2022-11-01T20:24:44.648Z,80.89
2022-11-01T20:27:12.550Z,80.50
2022-11-01T20:29:40.651Z,80.71
2022-11-01T20:32:08.595Z,80.47
2022-11-01T20:34:37.051Z,80.37
2022-11-01T20:37:27.346Z,80.64
2022-11-01T20:39:53.203Z,80.89
2022-11-01T20:42:21.396Z,80.49
2022-11-01T20:44:49.378Z,80.76
2022-11-01T20:47:17.390Z,80.85
2022-11-01T20:49:46.483Z,81.19
2022-11-01T20:52:38.094Z,80.79
2022-11-01T20:55:03.762Z,80.85
2022-11-01T20:57:31.692Z,80.89
2022-11-01T20:59:59.650Z,80.55
2022-11-01T21:02:28.935Z,80.88
2022-11-01T21:05:15.654Z,80.82
2022-11-01T21:07:47.971Z,81.16
2022-11-01T21:10:44.104Z,80.92
2022-11-01T21:13:21.831Z,80.99
2022-11-01T21:15:50.580Z,81.05
2022-11-01T21:18:18.497Z,80.65
2022-11-01T21:20:50.010Z,81.02
2022-11-01T21:23:32.979Z,80.46
2022-11-01T21:26:04.284Z,81.22
2022-11-01T21:28:43.106Z,80.51
2022-11-01T21:31:11.004Z,80.66
2022-11-01T21:33:43.638Z,80.56
2022-11-01T21:36:40.197Z,80.45
2022-11-01T21:39:34.210Z,81.02
2022-11-01T21:42:07.247Z,81.24
2022-11-01T21:44:45.373Z,81.04
2022-11-01T21:47:22.331Z,80.94
2022-11-01T21:49:51.340Z,81.38
2022-11-01T21:52:23.772Z,80.79
2022-11-01T21:54:53.354Z,81.00
2022-11-01T21:57:21.097Z,80.78
2022-11-01T21:59:49.244Z,80.73
2022-11-01T22:02:17.376Z,80.55
2022-11-01T22:04:46.086Z,81.14
2022-11-01T22:07:15.168Z,80.72
2022-11-01T22:09:44.128Z,80.56
2022-11-01T22:12:12.053Z,80.20
2022-11-01T22:14:41.637Z,80.70
2022-11-01T22:17:09.741Z,80.86
2022-11-01T22:19:37.696Z,80.78
2022-11-01T22:22:05.712Z,81.20
2022-11-01T22:24:33.663Z,80.92
2022-11-01T22:27:02.968Z,80.71
2022-11-01T22:29:31.094Z,80.90
2022-11-01T22:31:58.999Z,80.76
2022-11-01T22:34:26.886Z,80.82
2022-11-01T22:36:55.936Z,80.34
2022-11-01T22:39:27.291Z,80.40
2022-11-01T22:41:55.566Z,80.59
2022-11-01T22:44:29.874Z,80.51
2022-11-01T22:47:03.078Z,80.25
2022-11-01T22:49:43.250Z,80.41
2022-11-01T22:52:27.468Z,80.51
2022-11-01T22:55:11.683Z,79.79
2022-11-01T22:57:46.723Z,80.11
2022-11-01T23:00:39.812Z,80.19
2022-11-01T23:03:25.939Z,80.14
2022-11-01T23:05:58.985Z,80.25
2022-11-01T23:08:31.041Z,80.05
2022-11-01T23:11:00.993Z,80.77
2022-11-01T23:13:53.488Z,80.30
2022-11-01T23:16:24.548Z,79.78
2022-11-01T23:18:54.690Z,80.42
2022-11-01T23:21:24.159Z,80.58
2022-11-01T23:23:51.771Z,80.39
2022-11-01T23:26:21.375Z,80.75
2022-11-01T23:28:53.285Z,80.42
2022-11-01T23:31:22.520Z,80.43
2022-11-01T23:33:51.181Z,80.59
2022-11-01T23:36:19.361Z,80.13
2022-11-01T23:39:02.465Z,79.81
2022-11-01T23:41:46.416Z,79.83
2022-11-01T23:44:49.903Z,80.04
2022-11-01T23:47:21.158Z,80.03
2022-11-01T23:49:56.929Z,79.91
2022-11-01T23:52:42.130Z,79.97
2022-11-01T23:55:27.661Z,79.76
2022-11-01T23:58:04.628Z,79.82
